Etusivu
METAR-TAF:

METAR-TAF

Lentoasemat :

Esbjerg, Tanska

Leveyspiiri: 55-32N, Pituuspiiri: 008-34E, korkeus merenpinnasta: 30 m

Tämänhetkinen sää

Tämä raportti tehtiin 17 minuuttia sitten, kello 22.50 UTC
Tuuli 7 kn lännestä/lounaasta
Lämpötila 13°C
Kosteus 94%
Ilmanpaine 1021 hPa
Näkyvyys 10 km tai enemmän

METAR: EKEB 172250Z AUTO 25007KT 9999 NCD 13/12 Q1021

Aika: 01:07 (23:07 UTC)

Sääennuste

Tämä raportti tehtiin 2 tuntia ja 44 minuuttia sitten, kello 20.23 UTC
Ennuste voimassa 17. päivästä klo 21 UTC - 18. päivään klo 06 UTC
Tuuli 6 kn lännestä
Näkyvyys 10 km tai enemmän
Hajanaisia pilviä 1500 ft:n korkeudessa
Ajoittain
17. päivästä klo 22 UTC - 18. päivään klo 05 UTC
Näkyvyys: 4000 m
Hajonneita pilviä 1000 ft:n korkeudessa
utua,

TAF: EKEB 172023Z 1721/1806 27006KT 9999 SCT015 TEMPO 1722/1805 4000 BR BKN010

Säähavainnot ja -ennusteet yli 4000 lentoasemalta (METAR- ja TAF-raportit).

Käytössä olevat sääasemat on merkitty karttaan keltaisilla ja punaisilla pisteillä.

Aseta hiiri pisteen päälle nähdäksesi sääaseman nimen.

Klikkaa sitten nähdäksesi säähavainnot ja -ennusteet.

Kartan vaihtaminen: klikkaa mustalla rastilla varustettuja vihreitä pisteitä, niin voit zoomata sisään; viivalla varustettua vihreää pistettä, niin voit zoomata ulos tai vihreitä nuolia, niin pääset viereisille kartoille.


METAR-TAF: